Cowlesville, New York
Current Conditions -  °F | °C
As of 2:54 AM on Sunday 26 Oct 2014 (Local Time) from KBUF Reporting Station
Few Clouds Few Clouds  
Wind Chill: 43°   Ceiling: Unl
Heat Index: 48°   Visibility: 10mi
Dew Point: 38°   Wind: 13mph
Humidity: 68%   Direction: 240°WSW
Pressure: 29.67"   Gusts: NA
Location:  42.84°N, 78.47°W
Report Text: KBUF 260654Z 24011KT 10SM FEW060 09/03 A2967 RMK AO2 SLP048 T00890033
Loading
Personal Weather Stations






























Interactive Weather Map
Tropical Storm Tracking
New forecast layout! Learn more

10-Day Weather Forecast

Advertisements
Track Severe Weather on mobile